PTKR  Koror, Palau, NWS Office Airport

Add Bookmark

Federated States of Micronesia

Status
Operational
Latitude Longitude
7° 19' 48" N 134° 28' 47" E
7.330000 134.480000
Local (DST + 9) UTC (GMT + 9)
Oct 1, 2014 04:51 Sep 30, 2014 19:51
Sunrise-Sunset Local UTC
Begin Civil Twilight 05:28 20:28
Sunrise 05:49 20:49
Sunset 05:54 08:54
End Civil Twilight 06:15 09:15

Current Weather

METAR Observed VFR
PTKR 301853Z 30005KT 9SM -SHRA SCT016CB OVC160 26/24 A2972 Tue, Sep 30, 2014 @ 18:53 UTC
(58 Minutes ago)
Visual Flight Rules
Wind Visibility Clouds Conditions
300° at 5 knots (9 kph) 14000 meters
  • Scattered at 1,600' AGL
  • Overcast at 16,000' AGL
  • Light Rain Showers
Temperatures Readings Precipitation
Current Temp 26°C (79°F)
Dewpoint 24°C (75°F)
Humidity 89%
Altimeter 29.72"Hg
Sea Level Pressure 1006.5mb
Field Elevation 98.43'
None Recorded

Additional weather within a 92.6km radius of PTKR

Map ICAO Location
PTRO 8.1km N (360°)

24 Hour Weather History

Loading
-

24 Hour Weather Graphs

Loading
-

CheckWX.com is intended as a tool to help pilots better visualize weather data. It is not intended as a substitute for an official weather briefing obtained from a Flight Service Station. CheckWX.com does not meet the FAA requirements for an official pre-flight weather briefing. Therefore, it's important that pilots still call and obtain an official FSS pre-flight weather briefing.